This is the latest recevied weather packets stored in our database for station/object ZL2ARL. If no packets are shown the sender has not sent any weather packets the latest 10 day(s).
| Time | Temp. | Humidity | Pressure | Rain* | Wind** | Luminosity | Snow |
|---|---|---|---|---|---|---|---|
| 1777296025 | 9.44° C | 91% | 1024.3 hPa | 0 mm | - | 0 W/m² | - |
| 1777293626 | 9.44° C | 92% | 1024.2 hPa | 0 mm | - | 0 W/m² | - |
| 1777287617 | 9.44° C | 95% | 1024 hPa | 0 mm | - | 0 W/m² | - |
| 1777285843 | 9.44° C | 97% | 1023.7 hPa | 0 mm | - | 0 W/m² | - |
| 1777274450 | 8.89° C | 92% | 1022.9 hPa | 0 mm | - | 0 W/m² | - |
| 1777269629 | 11.11° C | 85% | 1022.2 hPa | 0 mm | - | 0 W/m² | - |
| 1777269024 | 11.67° C | 84% | 1022.1 hPa | 0 mm | - | 1 W/m² | - |
| 1777265435 | 13.89° C | 78% | 1021.7 hPa | 0 mm | - | 41 W/m² | - |
| 1777253417 | 16.67° C | 70% | 1021.7 hPa | 0 mm | - | 434 W/m² | - |
| 1777250431 | 14.44° C | 75% | 1022 hPa | 0 mm | - | 476 W/m² | - |
| 1777248032 | 14.44° C | 76% | 1022.3 hPa | 0 mm | - | 480 W/m² | - |
| 1777246217 | 13.89° C | 78% | 1022.3 hPa | 0 mm | - | 473 W/m² | - |
| 1777245633 | 13.89° C | 80% | 1022.5 hPa | 0 mm | - | 464 W/m² | - |
| 1777245028 | 13.33° C | 81% | 1022.5 hPa | 0 mm | - | 453 W/m² | - |
| 1777242025 | 12.78° C | 85% | 1022.6 hPa | 0 mm | - | 298 W/m² | - |
| 1777239625 | 11.67° C | 91% | 1022.4 hPa | 0 mm | - | 212 W/m² | - |
| 1777239020 | 11.11° C | 93% | 1022.4 hPa | 0 mm | - | 206 W/m² | - |
| 1777228819 | 8.33° C | 96% | 1020.9 hPa | 0 mm | - | 0 W/m² | - |
| 1777227025 | 8.89° C | 96% | 1020.7 hPa | 0 mm | - | 0 W/m² | - |
| 1777223416 | 8.89° C | 97% | 1020.1 hPa | 0 mm | - | 0 W/m² | - |
| 1777215031 | 8.33° C | 98% | 1019.7 hPa | 0 mm | - | 0 W/m² | - |
| 1777213821 | 8.33° C | 97% | 1020 hPa | 0 mm | - | 0 W/m² | - |
| 1777212027 | 7.78° C | 97% | 1020 hPa | 0 mm | - | 0 W/m² | - |
| 1777200033 | 7.22° C | 95% | 1019.6 hPa | 0 mm | - | 0 W/m² | - |
| 1777198825 | 7.78° C | 95% | 1019.4 hPa | 0 mm | - | 0 W/m² | - |
* Rain latest hour (hover to see other rain measurements)
** Current wind speed in m/s (hover to see current wind gust speed)